sensor_id;sensor_type;location;lat;lon;timestamp;P1;durP1;ratioP1;P2;durP2;ratioP2
51228;SDS011;37304;52.216;6.874;2023-04-26T00:02:24;8.20;;;1.77;;
51228;SDS011;37304;52.216;6.874;2023-04-26T00:07:26;6.20;;;1.75;;
51228;SDS011;37304;52.216;6.874;2023-04-26T00:12:27;3.63;;;1.67;;
51228;SDS011;37304;52.216;6.874;2023-04-26T00:17:28;6.43;;;1.43;;
51228;SDS011;37304;52.216;6.874;2023-04-26T00:22:28;3.07;;;2.07;;
51228;SDS011;37304;52.216;6.874;2023-04-26T00:27:29;6.90;;;2.10;;
51228;SDS011;37304;52.216;6.874;2023-04-26T00:32:29;2.53;;;1.50;;
51228;SDS011;37304;52.216;6.874;2023-04-26T00:37:30;6.28;;;1.60;;
51228;SDS011;37304;52.216;6.874;2023-04-26T00:42:30;4.33;;;1.60;;
51228;SDS011;37304;52.216;6.874;2023-04-26T00:47:31;5.07;;;1.83;;
51228;SDS011;37304;52.216;6.874;2023-04-26T00:52:32;2.92;;;1.65;;
51228;SDS011;37304;52.216;6.874;2023-04-26T00:57:32;8.43;;;2.58;;
51228;SDS011;37304;52.216;6.874;2023-04-26T01:02:33;4.03;;;1.60;;
51228;SDS011;37304;52.216;6.874;2023-04-26T01:07:34;6.93;;;2.22;;
51228;SDS011;37304;52.216;6.874;2023-04-26T01:12:35;3.67;;;1.75;;
51228;SDS011;37304;52.216;6.874;2023-04-26T01:22:37;2.25;;;1.35;;
51228;SDS011;37304;52.216;6.874;2023-04-26T01:27:38;6.43;;;1.90;;
51228;SDS011;37304;52.216;6.874;2023-04-26T01:32:38;6.40;;;2.55;;
51228;SDS011;37304;52.216;6.874;2023-04-26T01:37:39;5.17;;;2.37;;
51228;SDS011;37304;52.216;6.874;2023-04-26T01:42:39;2.50;;;2.10;;
51228;SDS011;37304;52.216;6.874;2023-04-26T01:47:39;3.60;;;1.53;;
51228;SDS011;37304;52.216;6.874;2023-04-26T01:52:40;5.45;;;1.77;;
51228;SDS011;37304;52.216;6.874;2023-04-26T01:57:40;4.37;;;1.90;;
51228;SDS011;37304;52.216;6.874;2023-04-26T02:02:40;5.73;;;2.20;;
51228;SDS011;37304;52.216;6.874;2023-04-26T02:07:41;2.90;;;2.00;;
51228;SDS011;37304;52.216;6.874;2023-04-26T02:12:41;6.37;;;1.90;;
51228;SDS011;37304;52.216;6.874;2023-04-26T02:17:41;1.60;;;1.43;;
51228;SDS011;37304;52.216;6.874;2023-04-26T02:22:42;4.53;;;2.10;;
51228;SDS011;37304;52.216;6.874;2023-04-26T02:27:42;4.93;;;2.17;;
51228;SDS011;37304;52.216;6.874;2023-04-26T02:32:42;8.00;;;2.03;;
51228;SDS011;37304;52.216;6.874;2023-04-26T02:37:43;4.40;;;2.37;;
51228;SDS011;37304;52.216;6.874;2023-04-26T02:42:43;3.60;;;1.70;;
51228;SDS011;37304;52.216;6.874;2023-04-26T02:47:44;6.47;;;2.60;;
51228;SDS011;37304;52.216;6.874;2023-04-26T02:52:44;4.30;;;1.77;;
51228;SDS011;37304;52.216;6.874;2023-04-26T02:57:44;8.47;;;1.77;;
51228;SDS011;37304;52.216;6.874;2023-04-26T03:02:45;3.67;;;1.77;;
51228;SDS011;37304;52.216;6.874;2023-04-26T03:07:45;4.47;;;1.93;;
51228;SDS011;37304;52.216;6.874;2023-04-26T03:12:45;5.57;;;2.30;;
51228;SDS011;37304;52.216;6.874;2023-04-26T03:17:46;6.27;;;2.10;;
51228;SDS011;37304;52.216;6.874;2023-04-26T03:22:46;4.47;;;1.90;;
51228;SDS011;37304;52.216;6.874;2023-04-26T03:27:46;4.77;;;1.73;;
51228;SDS011;37304;52.216;6.874;2023-04-26T03:32:47;4.20;;;1.97;;
51228;SDS011;37304;52.216;6.874;2023-04-26T03:37:47;7.27;;;1.67;;
51228;SDS011;37304;52.216;6.874;2023-04-26T03:42:48;6.20;;;2.25;;
51228;SDS011;37304;52.216;6.874;2023-04-26T03:47:48;5.63;;;2.50;;
51228;SDS011;37304;52.216;6.874;2023-04-26T03:52:48;22.02;;;2.67;;
51228;SDS011;37304;52.216;6.874;2023-04-26T03:57:49;5.83;;;1.73;;
51228;SDS011;37304;52.216;6.874;2023-04-26T04:02:49;5.27;;;2.57;;
51228;SDS011;37304;52.216;6.874;2023-04-26T04:07:49;3.33;;;1.87;;
51228;SDS011;37304;52.216;6.874;2023-04-26T04:12:51;5.78;;;2.85;;
51228;SDS011;37304;52.216;6.874;2023-04-26T04:17:52;5.40;;;2.15;;
51228;SDS011;37304;52.216;6.874;2023-04-26T04:22:52;4.57;;;1.73;;
51228;SDS011;37304;52.216;6.874;2023-04-26T04:27:53;6.30;;;2.50;;
51228;SDS011;37304;52.216;6.874;2023-04-26T04:32:54;3.67;;;2.20;;
51228;SDS011;37304;52.216;6.874;2023-04-26T04:37:54;2.30;;;1.75;;
51228;SDS011;37304;52.216;6.874;2023-04-26T04:42:57;8.07;;;2.92;;
51228;SDS011;37304;52.216;6.874;2023-04-26T04:48:00;3.97;;;2.28;;
51228;SDS011;37304;52.216;6.874;2023-04-26T04:53:00;4.47;;;2.37;;
51228;SDS011;37304;52.216;6.874;2023-04-26T04:58:04;17.45;;;3.58;;
51228;SDS011;37304;52.216;6.874;2023-04-26T05:03:08;9.38;;;3.70;;
51228;SDS011;37304;52.216;6.874;2023-04-26T05:08:09;5.47;;;2.83;;
51228;SDS011;37304;52.216;6.874;2023-04-26T05:13:12;4.73;;;2.73;;
51228;SDS011;37304;52.216;6.874;2023-04-26T05:18:15;4.57;;;2.78;;
51228;SDS011;37304;52.216;6.874;2023-04-26T05:23:16;6.47;;;2.37;;
51228;SDS011;37304;52.216;6.874;2023-04-26T05:28:16;8.53;;;2.93;;
51228;SDS011;37304;52.216;6.874;2023-04-26T05:33:17;12.60;;;3.53;;
51228;SDS011;37304;52.216;6.874;2023-04-26T05:38:17;6.15;;;2.55;;
51228;SDS011;37304;52.216;6.874;2023-04-26T05:43:18;9.83;;;2.67;;
51228;SDS011;37304;52.216;6.874;2023-04-26T05:48:22;9.60;;;2.20;;
51228;SDS011;37304;52.216;6.874;2023-04-26T05:53:26;4.47;;;1.73;;
51228;SDS011;37304;52.216;6.874;2023-04-26T05:58:27;4.78;;;2.22;;
51228;SDS011;37304;52.216;6.874;2023-04-26T06:03:27;8.83;;;2.70;;
51228;SDS011;37304;52.216;6.874;2023-04-26T06:08:28;5.93;;;1.77;;
51228;SDS011;37304;52.216;6.874;2023-04-26T06:13:29;3.90;;;1.73;;
51228;SDS011;37304;52.216;6.874;2023-04-26T06:18:30;3.10;;;1.67;;
51228;SDS011;37304;52.216;6.874;2023-04-26T06:23:30;4.97;;;1.80;;
51228;SDS011;37304;52.216;6.874;2023-04-26T06:28:31;7.13;;;2.97;;
51228;SDS011;37304;52.216;6.874;2023-04-26T06:33:31;3.00;;;2.33;;
51228;SDS011;37304;52.216;6.874;2023-04-26T06:38:31;3.80;;;1.70;;
51228;SDS011;37304;52.216;6.874;2023-04-26T06:43:32;4.73;;;1.63;;
51228;SDS011;37304;52.216;6.874;2023-04-26T06:48:32;6.17;;;1.73;;
51228;SDS011;37304;52.216;6.874;2023-04-26T06:53:35;4.13;;;2.03;;
51228;SDS011;37304;52.216;6.874;2023-04-26T06:58:36;5.60;;;2.45;;
51228;SDS011;37304;52.216;6.874;2023-04-26T07:03:36;4.07;;;2.00;;
51228;SDS011;37304;52.216;6.874;2023-04-26T07:08:37;6.53;;;2.60;;
51228;SDS011;37304;52.216;6.874;2023-04-26T07:13:37;5.80;;;3.00;;
51228;SDS011;37304;52.216;6.874;2023-04-26T07:18:41;5.27;;;2.20;;
51228;SDS011;37304;52.216;6.874;2023-04-26T07:23:41;6.70;;;2.15;;
51228;SDS011;37304;52.216;6.874;2023-04-26T07:28:42;5.03;;;2.17;;
51228;SDS011;37304;52.216;6.874;2023-04-26T07:33:42;4.50;;;2.37;;
51228;SDS011;37304;52.216;6.874;2023-04-26T07:38:42;3.17;;;2.03;;
51228;SDS011;37304;52.216;6.874;2023-04-26T07:43:43;6.90;;;2.40;;
51228;SDS011;37304;52.216;6.874;2023-04-26T07:48:43;4.87;;;2.10;;
51228;SDS011;37304;52.216;6.874;2023-04-26T07:53:43;7.47;;;2.47;;
51228;SDS011;37304;52.216;6.874;2023-04-26T07:58:44;2.40;;;1.60;;
51228;SDS011;37304;52.216;6.874;2023-04-26T08:03:44;2.23;;;1.50;;
51228;SDS011;37304;52.216;6.874;2023-04-26T08:08:44;4.93;;;1.90;;
51228;SDS011;37304;52.216;6.874;2023-04-26T08:13:49;6.88;;;2.10;;
51228;SDS011;37304;52.216;6.874;2023-04-26T08:23:50;4.80;;;2.20;;
51228;SDS011;37304;52.216;6.874;2023-04-26T08:28:51;5.20;;;2.10;;
51228;SDS011;37304;52.216;6.874;2023-04-26T08:33:51;5.97;;;1.67;;
51228;SDS011;37304;52.216;6.874;2023-04-26T08:38:51;8.50;;;2.00;;
51228;SDS011;37304;52.216;6.874;2023-04-26T08:43:52;5.55;;;1.60;;
51228;SDS011;37304;52.216;6.874;2023-04-26T08:54:41;4.88;;;1.70;;
51228;SDS011;37304;52.216;6.874;2023-04-26T08:59:45;5.88;;;1.80;;
51228;SDS011;37304;52.216;6.874;2023-04-26T09:04:46;5.22;;;2.25;;
51228;SDS011;37304;52.216;6.874;2023-04-26T09:09:50;4.28;;;1.30;;
51228;SDS011;37304;52.216;6.874;2023-04-26T09:14:57;5.00;;;1.25;;
51228;SDS011;37304;52.216;6.874;2023-04-26T09:20:17;1.52;;;0.90;;
51228;SDS011;37304;52.216;6.874;2023-04-26T09:25:27;4.25;;;1.30;;
51228;SDS011;37304;52.216;6.874;2023-04-26T09:30:29;2.63;;;1.10;;
51228;SDS011;37304;52.216;6.874;2023-04-26T09:35:38;5.45;;;0.90;;
51228;SDS011;37304;52.216;6.874;2023-04-26T09:40:44;2.67;;;1.20;;
51228;SDS011;37304;52.216;6.874;2023-04-26T09:45:55;3.35;;;1.23;;
51228;SDS011;37304;52.216;6.874;2023-04-26T09:51:19;2.28;;;1.13;;
51228;SDS011;37304;52.216;6.874;2023-04-26T09:56:19;1.92;;;0.98;;
51228;SDS011;37304;52.216;6.874;2023-04-26T10:01:22;2.42;;;0.90;;
51228;SDS011;37304;52.216;6.874;2023-04-26T10:06:24;4.60;;;1.05;;
51228;SDS011;37304;52.216;6.874;2023-04-26T10:11:27;2.58;;;1.10;;
51228;SDS011;37304;52.216;6.874;2023-04-26T10:16:27;1.40;;;0.75;;
51228;SDS011;37304;52.216;6.874;2023-04-26T10:21:30;2.00;;;0.80;;
51228;SDS011;37304;52.216;6.874;2023-04-26T10:26:49;1.17;;;0.80;;
51228;SDS011;37304;52.216;6.874;2023-04-26T10:37:08;1.45;;;0.65;;
51228;SDS011;37304;52.216;6.874;2023-04-26T10:42:26;2.55;;;0.75;;
51228;SDS011;37304;52.216;6.874;2023-04-26T10:47:35;3.45;;;1.10;;
51228;SDS011;37304;52.216;6.874;2023-04-26T10:53:21;6.70;;;0.98;;
51228;SDS011;37304;52.216;6.874;2023-04-26T10:57:59;5.60;;;1.60;;
51228;SDS011;37304;52.216;6.874;2023-04-26T11:03:09;1.45;;;1.00;;
51228;SDS011;37304;52.216;6.874;2023-04-26T11:13:15;1.73;;;0.80;;
51228;SDS011;37304;52.216;6.874;2023-04-26T11:18:17;2.53;;;1.02;;
51228;SDS011;37304;52.216;6.874;2023-04-26T11:23:19;1.77;;;0.90;;
51228;SDS011;37304;52.216;6.874;2023-04-26T11:28:20;4.28;;;1.13;;
51228;SDS011;37304;52.216;6.874;2023-04-26T11:33:22;2.92;;;1.13;;
51228;SDS011;37304;52.216;6.874;2023-04-26T11:38:23;1.20;;;0.70;;
51228;SDS011;37304;52.216;6.874;2023-04-26T11:48:35;2.22;;;1.02;;
51228;SDS011;37304;52.216;6.874;2023-04-26T11:53:40;2.58;;;1.00;;
51228;SDS011;37304;52.216;6.874;2023-04-26T11:58:51;4.07;;;1.10;;
51228;SDS011;37304;52.216;6.874;2023-04-26T12:03:55;1.67;;;1.10;;
51228;SDS011;37304;52.216;6.874;2023-04-26T12:08:57;1.90;;;1.10;;
51228;SDS011;37304;52.216;6.874;2023-04-26T12:14:00;3.20;;;0.82;;
51228;SDS011;37304;52.216;6.874;2023-04-26T12:19:03;2.60;;;1.38;;
51228;SDS011;37304;52.216;6.874;2023-04-26T12:24:06;2.97;;;1.23;;
51228;SDS011;37304;52.216;6.874;2023-04-26T12:29:06;3.40;;;0.95;;
51228;SDS011;37304;52.216;6.874;2023-04-26T12:34:07;3.42;;;1.13;;
51228;SDS011;37304;52.216;6.874;2023-04-26T12:39:08;3.83;;;1.23;;
51228;SDS011;37304;52.216;6.874;2023-04-26T12:44:13;2.65;;;1.27;;
51228;SDS011;37304;52.216;6.874;2023-04-26T12:49:13;3.50;;;1.37;;
51228;SDS011;37304;52.216;6.874;2023-04-26T12:54:14;2.00;;;1.10;;
51228;SDS011;37304;52.216;6.874;2023-04-26T12:59:14;1.40;;;1.10;;
51228;SDS011;37304;52.216;6.874;2023-04-26T13:04:15;2.55;;;1.25;;
51228;SDS011;37304;52.216;6.874;2023-04-26T13:09:15;2.97;;;1.23;;
51228;SDS011;37304;52.216;6.874;2023-04-26T13:14:16;5.45;;;1.45;;
51228;SDS011;37304;52.216;6.874;2023-04-26T13:19:16;2.77;;;1.40;;
51228;SDS011;37304;52.216;6.874;2023-04-26T13:24:17;2.83;;;1.10;;
51228;SDS011;37304;52.216;6.874;2023-04-26T13:29:17;2.20;;;1.27;;
51228;SDS011;37304;52.216;6.874;2023-04-26T13:34:18;1.67;;;1.40;;
51228;SDS011;37304;52.216;6.874;2023-04-26T13:39:18;1.87;;;1.33;;
51228;SDS011;37304;52.216;6.874;2023-04-26T13:44:18;3.00;;;1.20;;
51228;SDS011;37304;52.216;6.874;2023-04-26T13:49:19;2.15;;;1.00;;
51228;SDS011;37304;52.216;6.874;2023-04-26T13:54:21;3.33;;;2.13;;
51228;SDS011;37304;52.216;6.874;2023-04-26T13:59:24;4.38;;;1.67;;
51228;SDS011;37304;52.216;6.874;2023-04-26T14:04:25;3.28;;;1.52;;
51228;SDS011;37304;52.216;6.874;2023-04-26T14:09:26;1.30;;;1.17;;
51228;SDS011;37304;52.216;6.874;2023-04-26T14:14:26;3.50;;;1.63;;
51228;SDS011;37304;52.216;6.874;2023-04-26T14:19:27;4.97;;;1.40;;
51228;SDS011;37304;52.216;6.874;2023-04-26T14:24:27;4.87;;;1.67;;
51228;SDS011;37304;52.216;6.874;2023-04-26T14:29:27;5.00;;;1.47;;
51228;SDS011;37304;52.216;6.874;2023-04-26T14:34:28;4.33;;;1.57;;
51228;SDS011;37304;52.216;6.874;2023-04-26T14:39:28;2.30;;;1.50;;
51228;SDS011;37304;52.216;6.874;2023-04-26T14:44:35;3.15;;;1.10;;
51228;SDS011;37304;52.216;6.874;2023-04-26T14:54:37;3.85;;;1.10;;
51228;SDS011;37304;52.216;6.874;2023-04-26T14:59:41;4.03;;;1.20;;
51228;SDS011;37304;52.216;6.874;2023-04-26T15:04:41;2.00;;;1.00;;
51228;SDS011;37304;52.216;6.874;2023-04-26T15:09:42;2.63;;;0.93;;
51228;SDS011;37304;52.216;6.874;2023-04-26T15:14:42;5.70;;;1.43;;
51228;SDS011;37304;52.216;6.874;2023-04-26T15:19:43;3.07;;;1.30;;
51228;SDS011;37304;52.216;6.874;2023-04-26T15:24:43;3.30;;;1.00;;
51228;SDS011;37304;52.216;6.874;2023-04-26T15:29:43;2.83;;;1.30;;
51228;SDS011;37304;52.216;6.874;2023-04-26T15:34:44;1.47;;;1.10;;
51228;SDS011;37304;52.216;6.874;2023-04-26T15:39:44;3.05;;;1.35;;
51228;SDS011;37304;52.216;6.874;2023-04-26T15:44:45;2.70;;;1.23;;
51228;SDS011;37304;52.216;6.874;2023-04-26T15:49:46;6.87;;;1.93;;
51228;SDS011;37304;52.216;6.874;2023-04-26T15:54:46;5.63;;;1.77;;
51228;SDS011;37304;52.216;6.874;2023-04-26T15:59:46;1.93;;;1.40;;
51228;SDS011;37304;52.216;6.874;2023-04-26T16:04:47;4.97;;;1.30;;
51228;SDS011;37304;52.216;6.874;2023-04-26T16:14:48;1.70;;;0.90;;
51228;SDS011;37304;52.216;6.874;2023-04-26T16:19:50;3.63;;;0.88;;
51228;SDS011;37304;52.216;6.874;2023-04-26T16:29:50;5.20;;;1.42;;
51228;SDS011;37304;52.216;6.874;2023-04-26T16:34:52;3.28;;;1.40;;
51228;SDS011;37304;52.216;6.874;2023-04-26T16:44:54;4.03;;;1.52;;
51228;SDS011;37304;52.216;6.874;2023-04-26T16:54:56;4.18;;;1.60;;
51228;SDS011;37304;52.216;6.874;2023-04-26T17:04:56;5.30;;;1.88;;
51228;SDS011;37304;52.216;6.874;2023-04-26T17:14:57;5.00;;;1.30;;
51228;SDS011;37304;52.216;6.874;2023-04-26T17:19:57;3.50;;;1.50;;
51228;SDS011;37304;52.216;6.874;2023-04-26T17:24:58;5.17;;;1.70;;
51228;SDS011;37304;52.216;6.874;2023-04-26T17:34:59;2.92;;;1.48;;
51228;SDS011;37304;52.216;6.874;2023-04-26T17:44:59;5.93;;;1.67;;
51228;SDS011;37304;52.216;6.874;2023-04-26T17:50:00;4.80;;;2.35;;
51228;SDS011;37304;52.216;6.874;2023-04-26T17:55:00;5.07;;;1.38;;
51228;SDS011;37304;52.216;6.874;2023-04-26T18:00:01;7.07;;;1.63;;
51228;SDS011;37304;52.216;6.874;2023-04-26T18:05:11;3.65;;;1.83;;
51228;SDS011;37304;52.216;6.874;2023-04-26T18:10:14;3.33;;;1.50;;
51228;SDS011;37304;52.216;6.874;2023-04-26T18:15:14;5.70;;;2.03;;
51228;SDS011;37304;52.216;6.874;2023-04-26T18:20:15;4.43;;;1.50;;
51228;SDS011;37304;52.216;6.874;2023-04-26T18:25:15;8.23;;;1.57;;
51228;SDS011;37304;52.216;6.874;2023-04-26T18:30:16;5.80;;;1.63;;
51228;SDS011;37304;52.216;6.874;2023-04-26T18:35:17;3.03;;;1.60;;
51228;SDS011;37304;52.216;6.874;2023-04-26T18:40:18;3.70;;;1.67;;
51228;SDS011;37304;52.216;6.874;2023-04-26T18:45:18;2.07;;;1.27;;
51228;SDS011;37304;52.216;6.874;2023-04-26T18:50:19;3.43;;;1.97;;
51228;SDS011;37304;52.216;6.874;2023-04-26T18:55:19;4.47;;;1.50;;
51228;SDS011;37304;52.216;6.874;2023-04-26T19:00:20;3.43;;;1.60;;
51228;SDS011;37304;52.216;6.874;2023-04-26T19:05:21;3.92;;;1.63;;
51228;SDS011;37304;52.216;6.874;2023-04-26T19:10:21;5.68;;;1.75;;
51228;SDS011;37304;52.216;6.874;2023-04-26T19:15:22;4.30;;;1.75;;
51228;SDS011;37304;52.216;6.874;2023-04-26T19:20:24;3.07;;;1.60;;
51228;SDS011;37304;52.216;6.874;2023-04-26T19:25:25;4.60;;;1.90;;
51228;SDS011;37304;52.216;6.874;2023-04-26T19:30:26;5.32;;;1.70;;
51228;SDS011;37304;52.216;6.874;2023-04-26T19:40:28;4.40;;;1.80;;
51228;SDS011;37304;52.216;6.874;2023-04-26T19:45:28;4.93;;;1.77;;
51228;SDS011;37304;52.216;6.874;2023-04-26T19:50:29;4.95;;;1.85;;
51228;SDS011;37304;52.216;6.874;2023-04-26T19:55:30;4.75;;;2.03;;
51228;SDS011;37304;52.216;6.874;2023-04-26T20:00:32;5.73;;;2.87;;
51228;SDS011;37304;52.216;6.874;2023-04-26T20:05:50;8.68;;;2.33;;
51228;SDS011;37304;52.216;6.874;2023-04-26T20:10:53;2.72;;;2.15;;
51228;SDS011;37304;52.216;6.874;2023-04-26T20:16:00;5.05;;;2.33;;
51228;SDS011;37304;52.216;6.874;2023-04-26T20:21:01;7.05;;;3.05;;
51228;SDS011;37304;52.216;6.874;2023-04-26T20:31:02;6.93;;;3.15;;
51228;SDS011;37304;52.216;6.874;2023-04-26T20:36:03;4.43;;;2.58;;
51228;SDS011;37304;52.216;6.874;2023-04-26T20:41:07;5.25;;;2.92;;
51228;SDS011;37304;52.216;6.874;2023-04-26T20:46:10;5.20;;;2.75;;
51228;SDS011;37304;52.216;6.874;2023-04-26T20:51:10;7.13;;;2.70;;
51228;SDS011;37304;52.216;6.874;2023-04-26T20:56:11;4.93;;;2.35;;
51228;SDS011;37304;52.216;6.874;2023-04-26T21:01:11;6.20;;;2.60;;
51228;SDS011;37304;52.216;6.874;2023-04-26T21:06:11;5.23;;;2.43;;
51228;SDS011;37304;52.216;6.874;2023-04-26T21:11:12;5.33;;;2.67;;
51228;SDS011;37304;52.216;6.874;2023-04-26T21:16:12;6.53;;;2.97;;
51228;SDS011;37304;52.216;6.874;2023-04-26T21:21:13;7.10;;;2.55;;
51228;SDS011;37304;52.216;6.874;2023-04-26T21:26:16;3.40;;;2.03;;
51228;SDS011;37304;52.216;6.874;2023-04-26T21:31:20;4.75;;;2.40;;
51228;SDS011;37304;52.216;6.874;2023-04-26T21:36:20;4.23;;;2.40;;
51228;SDS011;37304;52.216;6.874;2023-04-26T21:41:20;6.83;;;2.00;;
51228;SDS011;37304;52.216;6.874;2023-04-26T21:46:22;4.53;;;2.30;;
51228;SDS011;37304;52.216;6.874;2023-04-26T21:51:22;2.93;;;1.70;;
51228;SDS011;37304;52.216;6.874;2023-04-26T21:56:23;4.43;;;2.40;;
51228;SDS011;37304;52.216;6.874;2023-04-26T22:01:23;3.00;;;1.90;;
51228;SDS011;37304;52.216;6.874;2023-04-26T22:06:24;4.43;;;2.83;;
51228;SDS011;37304;52.216;6.874;2023-04-26T22:11:24;2.90;;;2.23;;
51228;SDS011;37304;52.216;6.874;2023-04-26T22:16:24;2.00;;;1.80;;
51228;SDS011;37304;52.216;6.874;2023-04-26T22:21:25;3.17;;;1.63;;
51228;SDS011;37304;52.216;6.874;2023-04-26T22:26:25;8.77;;;3.30;;
51228;SDS011;37304;52.216;6.874;2023-04-26T22:31:26;9.90;;;2.47;;
51228;SDS011;37304;52.216;6.874;2023-04-26T22:36:26;6.23;;;2.00;;
51228;SDS011;37304;52.216;6.874;2023-04-26T22:41:26;6.63;;;1.67;;
51228;SDS011;37304;52.216;6.874;2023-04-26T22:46:27;5.10;;;1.97;;
51228;SDS011;37304;52.216;6.874;2023-04-26T22:51:27;4.90;;;2.00;;
51228;SDS011;37304;52.216;6.874;2023-04-26T22:56:28;3.80;;;1.87;;
51228;SDS011;37304;52.216;6.874;2023-04-26T23:01:28;3.50;;;1.83;;
51228;SDS011;37304;52.216;6.874;2023-04-26T23:06:28;5.07;;;2.47;;
51228;SDS011;37304;52.216;6.874;2023-04-26T23:11:29;5.80;;;1.90;;
51228;SDS011;37304;52.216;6.874;2023-04-26T23:16:29;3.88;;;2.20;;
51228;SDS011;37304;52.216;6.874;2023-04-26T23:21:31;5.50;;;2.22;;
51228;SDS011;37304;52.216;6.874;2023-04-26T23:26:32;6.05;;;2.10;;
51228;SDS011;37304;52.216;6.874;2023-04-26T23:31:33;6.75;;;2.15;;
51228;SDS011;37304;52.216;6.874;2023-04-26T23:36:33;4.23;;;1.87;;
51228;SDS011;37304;52.216;6.874;2023-04-26T23:41:34;4.90;;;2.20;;
51228;SDS011;37304;52.216;6.874;2023-04-26T23:46:34;6.35;;;2.50;;
51228;SDS011;37304;52.216;6.874;2023-04-26T23:51:35;4.67;;;2.37;;
51228;SDS011;37304;52.216;6.874;2023-04-26T23:56:35;8.30;;;2.50;;
